Time;durP1;ratioP1;P1;durP2;ratioP2;P2;SDS_P1;SDS_P2;PMS_P1;PMS_P2;Temp;Humidity;BMP_temperature;BMP_pressure;BME280_temperature;BME280_humidity;BME280_pressure;Samples;Min_cycle;Max_cycle;Signal;HPM_P1;HPM_P2
2022/11/29 00:01:10;;;;;;;50.13;15.77;;;8.20;99.90;;;;;;4996697;28;20049;-73
2022/11/29 00:03:36;;;;;;;62.03;15.60;;;8.20;99.90;;;;;;5002644;28;20050;-73
2022/11/29 00:06:17;;;;;;;38.67;14.43;;;8.50;99.90;;;;;;5004036;28;20034;-73
2022/11/29 00:08:43;;;;;;;104.75;16.58;;;8.20;99.90;;;;;;5000310;28;20144;-73
2022/11/29 00:11:11;;;;;;;39.35;15.32;;;8.20;99.90;;;;;;4987532;28;20069;-74
2022/11/29 00:13:37;;;;;;;36.88;15.02;;;8.20;99.90;;;;;;4998598;28;20046;-73
2022/11/29 00:16:09;;;;;;;47.38;15.13;;;8.10;99.90;;;;;;5001693;28;20053;-74
2022/11/29 00:18:35;;;;;;;44.03;17.02;;;8.40;99.90;;;;;;5004320;28;20057;-74
2022/11/29 00:21:07;;;;;;;87.88;16.75;;;8.10;99.90;;;;;;5005658;28;20061;-74
2022/11/29 00:23:34;;;;;;;49.30;15.90;;;8.10;99.90;;;;;;5004678;28;20045;-74
2022/11/29 00:26:06;;;;;;;39.53;15.88;;;8.10;99.90;;;;;;5006306;28;20152;-74
2022/11/29 00:28:34;;;;;;;59.05;15.45;;;8.10;99.90;;;;;;5005400;28;20121;-70
2022/11/29 00:30:59;;;;;;;43.95;16.23;;;8.10;99.90;;;;;;4990561;28;20871;-70
2022/11/29 00:33:28;;;;;;;101.15;16.65;;;8.10;99.90;;;;;;5005220;28;20077;-71
2022/11/29 00:35:54;;;;;;;58.05;15.57;;;8.10;99.90;;;;;;5005811;28;20045;-70
2022/11/29 00:38:19;;;;;;;42.33;15.35;;;8.10;99.90;;;;;;4993732;28;20081;-70
2022/11/29 00:40:50;;;;;;;39.05;16.27;;;8.10;99.90;;;;;;5004969;28;20038;-70
2022/11/29 00:43:16;;;;;;;36.67;15.43;;;8.00;99.90;;;;;;4996781;28;20532;-70
2022/11/29 00:45:42;;;;;;;44.70;16.15;;;8.10;99.90;;;;;;5000108;28;20128;-70
2022/11/29 00:48:07;;;;;;;47.67;15.82;;;8.10;99.90;;;;;;5006344;28;20056;-70
2022/11/29 00:50:33;;;;;;;38.75;15.98;;;8.10;99.90;;;;;;5005596;28;20046;-70
2022/11/29 00:52:59;;;;;;;37.00;15.43;;;8.10;99.90;;;;;;5004815;28;20042;-70
2022/11/29 00:55:24;;;;;;;43.95;15.95;;;8.10;99.90;;;;;;5004061;28;20042;-69
2022/11/29 00:57:50;;;;;;;37.67;16.95;;;8.10;99.90;;;;;;5006130;28;20553;-70
2022/11/29 01:00:16;;;;;;;42.22;16.33;;;8.00;99.90;;;;;;5002954;28;20046;-70
2022/11/29 01:02:42;;;;;;;39.88;16.15;;;8.00;99.90;;;;;;5004445;28;20064;-69
2022/11/29 01:05:07;;;;;;;48.78;15.55;;;8.00;99.90;;;;;;5005798;28;20042;-70
2022/11/29 01:07:33;;;;;;;34.10;15.65;;;8.00;99.90;;;;;;5004900;28;20530;-70
2022/11/29 01:09:59;;;;;;;45.72;16.73;;;8.00;99.90;;;;;;5003149;28;20104;-71
2022/11/29 01:12:25;;;;;;;36.35;15.15;;;8.00;99.90;;;;;;4987652;28;20041;-70
2022/11/29 01:14:50;;;;;;;59.33;15.90;;;8.00;99.90;;;;;;5005552;28;20041;-70
2022/11/29 01:17:16;;;;;;;38.13;15.85;;;8.30;99.90;;;;;;4989576;28;20045;-71
2022/11/29 01:19:42;;;;;;;64.65;16.02;;;8.00;99.90;;;;;;4972830;28;20042;-71
2022/11/29 01:22:08;;;;;;;36.92;15.65;;;8.00;99.90;;;;;;4973034;28;20046;-70
2022/11/29 01:24:33;;;;;;;45.95;15.60;;;7.90;99.90;;;;;;4998926;28;20042;-70
2022/11/29 01:26:59;;;;;;;42.97;15.45;;;8.00;99.90;;;;;;4965428;28;20048;-70
2022/11/29 01:29:25;;;;;;;34.95;15.50;;;7.90;99.90;;;;;;4984241;28;20047;-70
2022/11/29 01:31:51;;;;;;;38.30;15.77;;;7.90;99.90;;;;;;4981000;28;20601;-70
2022/11/29 01:34:16;;;;;;;35.65;16.38;;;7.90;99.90;;;;;;4984139;28;20655;-70
2022/11/29 01:36:42;;;;;;;38.60;15.82;;;7.90;99.90;;;;;;4983281;28;20447;-70
2022/11/29 01:39:09;;;;;;;37.72;14.82;;;7.90;99.90;;;;;;4985733;28;20522;-69
2022/11/29 01:41:36;;;;;;;36.05;15.48;;;7.90;99.90;;;;;;4967558;28;20061;-70
2022/11/29 01:44:10;;;;;;;36.03;15.45;;;7.90;99.90;;;;;;4988110;28;20054;-70
2022/11/29 01:46:39;;;;;;;40.33;16.15;;;7.90;99.90;;;;;;4985874;28;20050;-70
2022/11/29 01:49:19;;;;;;;44.97;15.40;;;7.90;99.90;;;;;;4986779;28;20328;-70
2022/11/29 01:51:50;;;;;;;29.10;15.32;;;7.90;99.90;;;;;;4989989;28;20047;-70
2022/11/29 01:54:16;;;;;;;29.65;15.07;;;7.90;99.90;;;;;;5001545;28;20120;-70
2022/11/29 01:56:44;;;;;;;32.30;15.13;;;7.90;99.90;;;;;;4991643;28;20418;-70
2022/11/29 01:59:17;;;;;;;41.90;15.82;;;7.80;99.90;;;;;;5004052;28;20042;-71
2022/11/29 02:01:42;;;;;;;31.20;14.18;;;8.10;99.90;;;;;;5005731;28;20077;-70
2022/11/29 02:04:08;;;;;;;33.28;15.80;;;7.80;99.90;;;;;;5004091;28;20065;-71
2022/11/29 02:06:35;;;;;;;49.35;15.18;;;7.90;99.90;;;;;;5006532;28;20048;-70
2022/11/29 02:09:01;;;;;;;29.10;14.63;;;7.80;99.90;;;;;;5008538;28;20058;-70
2022/11/29 02:11:33;;;;;;;26.92;14.85;;;7.80;99.90;;;;;;5009036;28;20053;-70
2022/11/29 02:14:02;;;;;;;27.80;14.57;;;7.80;99.90;;;;;;5007112;28;20583;-70
2022/11/29 02:16:46;;;;;;;26.65;14.48;;;7.80;99.90;;;;;;5008217;28;20038;-70
2022/11/29 02:19:34;;;;;;;29.42;14.77;;;7.80;99.90;;;;;;5008232;28;20129;-70
2022/11/29 02:22:12;;;;;;;27.35;14.45;;;7.80;99.90;;;;;;5006711;28;20515;-70
2022/11/29 02:24:59;;;;;;;28.13;14.73;;;7.80;99.90;;;;;;4992617;28;20041;-70
2022/11/29 02:28:04;;;;;;;26.27;15.02;;;7.80;99.90;;;;;;5006983;28;20132;-70
2022/11/29 02:30:57;;;;;;;28.92;14.85;;;7.70;99.90;;;;;;4977732;28;20054;-70
2022/11/29 02:33:35;;;;;;;30.83;14.43;;;7.70;99.90;;;;;;5007461;28;20629;-70
2022/11/29 02:36:31;;;;;;;31.75;15.18;;;7.70;99.90;;;;;;5001793;28;20515;-70
2022/11/29 02:39:29;;;;;;;27.13;14.40;;;7.80;99.90;;;;;;4987373;28;20116;-70
2022/11/29 02:42:11;;;;;;;25.90;14.38;;;7.70;99.90;;;;;;4974280;28;20057;-71
2022/11/29 02:45:01;;;;;;;26.17;14.35;;;7.70;99.90;;;;;;5003540;28;20046;-70
2022/11/29 02:47:42;;;;;;;25.83;14.55;;;7.70;99.90;;;;;;4992507;28;20042;-70
2022/11/29 02:50:18;;;;;;;23.10;14.00;;;7.70;99.90;;;;;;4996826;28;20038;-70
2022/11/29 02:52:55;;;;;;;26.17;13.60;;;7.60;99.90;;;;;;5005052;28;20045;-70
2022/11/29 02:55:28;;;;;;;26.33;14.50;;;7.60;99.90;;;;;;4998995;28;20034;-70
2022/11/29 02:57:57;;;;;;;34.97;14.43;;;7.60;99.90;;;;;;4977751;28;20552;-70
2022/11/29 03:00:23;;;;;;;25.98;14.35;;;7.60;99.90;;;;;;4984280;28;20046;-70
2022/11/29 03:03:19;;;;;;;26.77;15.55;;;7.60;99.90;;;;;;5002203;28;20042;-70
2022/11/29 03:05:59;;;;;;;26.60;14.32;;;7.60;99.90;;;;;;5004947;28;20503;-71
2022/11/29 03:08:50;;;;;;;27.57;13.93;;;7.60;99.90;;;;;;5006729;28;20116;-71
2022/11/29 03:11:44;;;;;;;30.25;14.05;;;7.60;99.90;;;;;;5006450;28;20677;-71
2022/11/29 03:14:28;;;;;;;24.60;13.25;;;7.60;99.90;;;;;;4992819;28;20104;-71
2022/11/29 03:17:32;;;;;;;22.83;14.35;;;7.70;99.90;;;;;;4989126;28;20042;-71
2022/11/29 03:20:06;;;;;;;25.40;13.13;;;7.50;99.90;;;;;;5005651;28;20048;-70
2022/11/29 03:23:13;;;;;;;29.10;13.75;;;7.50;99.90;;;;;;5005808;28;20128;-70
2022/11/29 03:25:58;;;;;;;22.20;12.57;;;7.50;99.90;;;;;;4979285;28;20132;-70
2022/11/29 03:28:31;;;;;;;28.85;13.85;;;7.50;99.90;;;;;;5007279;28;20392;-70
2022/11/29 03:31:09;;;;;;;22.45;13.25;;;7.40;99.90;;;;;;5005410;28;20065;-70
2022/11/29 03:33:59;;;;;;;25.70;13.65;;;7.50;99.90;;;;;;4992859;28;20065;-70
2022/11/29 03:36:52;;;;;;;30.98;12.30;;;7.40;99.90;;;;;;4990998;28;20119;-70
2022/11/29 03:39:23;;;;;;;44.40;12.30;;;7.40;99.90;;;;;;4995245;28;20451;-70
2022/11/29 03:41:59;;;;;;;21.02;13.38;;;7.40;99.90;;;;;;5005899;28;20042;-70
2022/11/29 03:44:32;;;;;;;22.60;11.57;;;7.40;99.90;;;;;;5005378;28;20034;-70
2022/11/29 03:47:12;;;;;;;21.63;12.25;;;7.40;99.90;;;;;;5007024;28;20034;-70
2022/11/29 03:50:00;;;;;;;19.45;11.70;;;7.30;99.90;;;;;;5002767;28;20046;-70
2022/11/29 03:52:41;;;;;;;39.00;13.15;;;7.30;99.90;;;;;;5005012;28;20499;-70
2022/11/29 03:55:31;;;;;;;18.95;10.75;;;7.30;99.90;;;;;;4971750;28;20084;-70
2022/11/29 03:58:15;;;;;;;19.70;11.43;;;7.30;99.90;;;;;;5004835;28;20046;-69
2022/11/29 04:01:30;;;;;;;24.80;12.18;;;7.30;99.90;;;;;;5004322;28;20125;-70
2022/11/29 04:03:58;;;;;;;19.20;11.05;;;7.20;99.90;;;;;;5004233;28;20046;-70
2022/11/29 04:06:58;;;;;;;19.08;11.00;;;7.20;99.90;;;;;;5005442;28;20111;-70
2022/11/29 04:09:40;;;;;;;19.83;11.48;;;7.20;99.90;;;;;;4960305;28;20057;-69
2022/11/29 04:12:39;;;;;;;24.00;10.57;;;7.20;99.90;;;;;;4965308;28;20098;-69
2022/11/29 04:15:05;;;;;;;18.73;11.63;;;7.20;99.90;;;;;;4966877;28;20508;-69
2022/11/29 04:17:39;;;;;;;17.90;11.55;;;7.10;99.90;;;;;;4966137;28;20058;-70
2022/11/29 04:20:37;;;;;;;16.38;10.18;;;7.10;99.90;;;;;;4964450;28;20126;-70
2022/11/29 04:23:21;;;;;;;16.10;10.23;;;7.10;99.90;;;;;;4960991;28;20093;-70
2022/11/29 04:26:02;;;;;;;20.58;9.50;;;7.00;99.90;;;;;;4964635;28;20102;-73
2022/11/29 04:28:30;;;;;;;17.42;9.70;;;7.00;99.90;;;;;;4962245;28;20513;-69
2022/11/29 04:31:02;;;;;;;21.38;9.70;;;7.00;99.90;;;;;;4964884;28;20199;-69
2022/11/29 04:33:34;;;;;;;21.95;9.93;;;7.40;99.90;;;;;;4953608;28;20051;-71
2022/11/29 04:36:12;;;;;;;;;;;7.00;99.90;;;;;;4953718;28;20678;-70
2022/11/29 04:38:49;;;;;;;32.63;10.10;;;7.00;99.90;;;;;;4956000;28;20016;-70
2022/11/29 04:41:34;;;;;;;26.02;9.52;;;6.90;99.90;;;;;;4959515;28;20385;-70
2022/11/29 04:44:39;;;;;;;21.50;9.23;;;6.90;99.90;;;;;;4961191;28;20312;-70
2022/11/29 04:47:33;;;;;;;17.48;9.20;;;6.90;99.90;;;;;;4961873;28;20042;-70
2022/11/29 04:50:04;;;;;;;13.85;9.40;;;6.90;99.90;;;;;;4966084;28;20412;-70
2022/11/29 04:52:51;;;;;;;21.27;8.93;;;6.90;99.90;;;;;;4963011;28;20047;-70
2022/11/29 04:55:37;;;;;;;26.42;9.73;;;6.90;99.90;;;;;;4963516;28;20489;-70
2022/11/29 04:58:18;;;;;;;35.47;10.13;;;6.90;99.90;;;;;;4964115;28;20058;-70
2022/11/29 05:01:00;;;;;;;15.60;9.75;;;6.90;99.90;;;;;;4963940;28;20496;-70
2022/11/29 05:03:29;;;;;;;15.77;9.43;;;6.80;99.90;;;;;;4966653;28;20047;-71
2022/11/29 05:06:04;;;;;;;20.50;9.65;;;7.20;99.90;;;;;;4966505;28;20053;-70
2022/11/29 05:08:59;;;;;;;15.32;8.82;;;6.80;99.90;;;;;;4995945;28;20053;-70
2022/11/29 05:12:03;;;;;;;15.57;9.45;;;6.80;99.90;;;;;;5001519;28;20037;-71
2022/11/29 05:15:00;;;;;;;17.88;9.82;;;6.80;99.90;;;;;;4986198;28;20389;-70
2022/11/29 05:17:31;;;;;;;16.02;8.57;;;6.80;99.90;;;;;;5002966;28;20077;-70
2022/11/29 05:20:39;;;;;;;17.02;9.55;;;6.80;99.90;;;;;;4983886;28;20104;-70
2022/11/29 05:23:39;;;;;;;17.50;9.13;;;6.70;99.90;;;;;;4942696;28;20044;-71
2022/11/29 05:26:23;;;;;;;16.02;9.40;;;6.80;99.90;;;;;;4942587;28;20058;-70
2022/11/29 05:28:48;;;;;;;27.42;9.07;;;7.00;99.90;;;;;;4992400;28;20065;-70
2022/11/29 05:31:41;;;;;;;22.50;8.85;;;6.80;99.90;;;;;;5005908;28;20050;-70
2022/11/29 05:34:38;;;;;;;15.13;8.13;;;6.80;99.90;;;;;;5004802;28;20049;-70
2022/11/29 05:37:31;;;;;;;31.27;9.13;;;6.70;99.90;;;;;;5002274;28;20614;-70
2022/11/29 05:40:12;;;;;;;13.50;8.38;;;6.70;99.90;;;;;;4973686;28;20105;-70
2022/11/29 05:43:09;;;;;;;15.77;8.27;;;6.70;99.90;;;;;;4998834;28;20045;-70
2022/11/29 05:46:00;;;;;;;15.32;8.35;;;6.70;99.90;;;;;;4999036;28;20308;-70
2022/11/29 05:48:45;;;;;;;;;;;6.70;99.90;;;;;;4999520;28;20500;-70
2022/11/29 05:51:28;;;;;;;16.45;8.98;;;6.70;99.90;;;;;;4990427;28;19925;-70
2022/11/29 05:54:29;;;;;;;15.98;8.20;;;6.60;99.90;;;;;;5003019;28;20506;-70
2022/11/29 05:57:02;;;;;;;15.00;8.53;;;6.60;99.90;;;;;;5000186;28;20117;-70
2022/11/29 05:59:29;;;;;;;15.18;8.75;;;6.60;99.90;;;;;;5000718;28;20067;-70
2022/11/29 06:02:27;;;;;;;18.13;8.35;;;6.50;99.90;;;;;;5000577;28;20720;-70
2022/11/29 06:04:56;;;;;;;17.25;9.57;;;6.50;99.90;;;;;;4985703;28;20419;-70
2022/11/29 06:07:44;;;;;;;17.30;8.68;;;6.50;99.90;;;;;;4990024;28;20516;-70
2022/11/29 06:10:17;;;;;;;17.30;9.02;;;6.50;99.90;;;;;;5002258;28;20052;-70
2022/11/29 06:13:01;;;;;;;16.85;8.75;;;6.50;99.90;;;;;;5003592;28;20524;-70
2022/11/29 06:15:45;;;;;;;14.75;9.00;;;6.50;99.90;;;;;;4979725;28;20095;-71
2022/11/29 06:18:35;;;;;;;18.55;9.48;;;6.50;99.90;;;;;;5001939;28;20056;-70
2022/11/29 06:21:01;;;;;;;18.35;9.52;;;6.50;99.90;;;;;;4986740;28;20056;-70
2022/11/29 06:23:41;;;;;;;21.27;8.80;;;6.50;99.90;;;;;;5006464;28;20978;-70
2022/11/29 06:26:22;;;;;;;17.05;8.77;;;6.80;99.90;;;;;;5005360;28;20104;-70
2022/11/29 06:29:04;;;;;;;16.27;9.20;;;6.50;99.90;;;;;;5007687;28;20049;-70
2022/11/29 06:31:33;;;;;;;;;;;6.40;99.90;;;;;;5005026;28;20502;-71
2022/11/29 06:34:08;;;;;;;15.82;7.95;;;6.40;99.90;;;;;;5004702;28;19973;-71
2022/11/29 06:36:46;;;;;;;15.68;8.68;;;6.40;99.90;;;;;;4999401;28;21087;-71
2022/11/29 06:39:12;;;;;;;22.17;9.07;;;6.40;99.90;;;;;;5002297;28;20068;-71
2022/11/29 06:41:37;;;;;;;21.23;9.32;;;6.40;99.90;;;;;;5001844;28;20118;-70
2022/11/29 06:44:04;;;;;;;25.08;9.35;;;6.40;99.90;;;;;;4988539;28;20130;-70
2022/11/29 06:46:38;;;;;;;17.65;8.60;;;6.40;99.90;;;;;;5003647;28;20380;-70
2022/11/29 06:49:13;;;;;;;16.10;8.55;;;6.40;99.90;;;;;;4989359;28;20444;-70
2022/11/29 06:51:59;;;;;;;22.00;9.43;;;6.40;99.90;;;;;;5001743;28;20069;-74
2022/11/29 06:54:43;;;;;;;16.70;8.93;;;6.40;99.90;;;;;;5003676;28;20128;-74
2022/11/29 06:57:22;;;;;;;14.82;9.38;;;6.40;99.90;;;;;;5002568;28;20041;-73
2022/11/29 07:00:18;;;;;;;14.80;8.43;;;6.40;99.90;;;;;;5000830;28;20549;-74
2022/11/29 07:02:56;;;;;;;39.10;10.48;;;6.40;99.90;;;;;;5000475;28;20042;-73
2022/11/29 07:05:31;;;;;;;16.20;9.43;;;6.40;99.90;;;;;;5001457;28;20088;-74
2022/11/29 07:08:11;;;;;;;18.27;8.85;;;6.40;99.90;;;;;;4999243;28;20431;-74
2022/11/29 07:10:39;;;;;;;17.52;9.43;;;6.40;99.90;;;;;;5001578;28;20037;-73
2022/11/29 07:13:05;;;;;;;15.43;9.38;;;6.30;99.90;;;;;;5004990;28;20042;-74
2022/11/29 07:15:31;;;;;;;19.27;10.05;;;6.30;99.90;;;;;;5002492;28;20069;-73
2022/11/29 07:18:24;;;;;;;20.92;9.48;;;6.30;99.90;;;;;;4980906;28;20042;-74
2022/11/29 07:21:01;;;;;;;20.30;9.93;;;6.30;99.90;;;;;;4997410;28;20410;-73
2022/11/29 07:23:29;;;;;;;16.15;9.68;;;6.30;99.90;;;;;;4996862;28;20045;-73
2022/11/29 07:26:14;;;;;;;18.98;9.45;;;6.30;99.90;;;;;;4997189;28;20458;-74
2022/11/29 07:29:15;;;;;;;17.00;9.27;;;6.30;99.90;;;;;;4985138;28;20049;-73
2022/11/29 07:32:15;;;;;;;16.80;8.77;;;6.30;99.90;;;;;;4975061;28;20042;-73
2022/11/29 07:34:57;;;;;;;18.92;9.65;;;6.30;99.90;;;;;;4997622;28;20042;-73
2022/11/29 07:37:25;;;;;;;;;;;6.30;99.90;;;;;;4997694;28;20046;-74
2022/11/29 07:40:17;;;;;;;21.20;9.20;;;6.30;99.90;;;;;;4997793;28;19929;-74
2022/11/29 07:43:17;;;;;;;15.40;9.00;;;6.30;99.90;;;;;;4983201;28;20124;-73
2022/11/29 07:45:44;;;;;;;18.27;9.35;;;6.30;99.90;;;;;;4999195;28;20045;-74
2022/11/29 07:48:12;;;;;;;18.17;9.43;;;6.30;99.90;;;;;;4996831;28;20503;-74
2022/11/29 07:50:39;;;;;;;18.70;9.65;;;6.20;99.90;;;;;;4997758;28;20035;-74
2022/11/29 07:53:05;;;;;;;21.08;10.38;;;6.20;99.90;;;;;;4991737;28;20084;-73
2022/11/29 07:55:33;;;;;;;17.25;9.27;;;6.20;99.90;;;;;;4993664;28;20132;-73
2022/11/29 07:57:59;;;;;;;14.52;9.00;;;6.20;99.90;;;;;;4989160;28;20052;-74
2022/11/29 08:00:24;;;;;;;17.05;9.68;;;6.20;99.90;;;;;;4978183;28;20574;-73
2022/11/29 08:02:50;;;;;;;19.23;10.02;;;6.20;99.90;;;;;;4993872;28;20109;-74
2022/11/29 08:05:17;;;;;;;18.67;8.90;;;6.20;99.90;;;;;;4996357;28;20120;-74
2022/11/29 08:07:42;;;;;;;18.38;9.50;;;6.20;99.90;;;;;;4979294;28;20056;-74
2022/11/29 08:10:11;;;;;;;19.35;10.18;;;6.20;99.90;;;;;;4981776;28;20058;-74
2022/11/29 08:12:42;;;;;;;18.25;9.43;;;6.20;99.90;;;;;;5002715;28;20141;-74
2022/11/29 08:15:09;;;;;;;20.23;9.90;;;6.20;99.90;;;;;;4997425;28;20077;-74
2022/11/29 08:17:37;;;;;;;18.95;9.38;;;6.20;99.90;;;;;;5001217;28;20092;-74
2022/11/29 08:20:04;;;;;;;20.52;9.85;;;6.30;99.90;;;;;;5000477;28;20045;-74
2022/11/29 08:22:30;;;;;;;26.75;9.98;;;6.30;99.90;;;;;;4999287;28;20610;-74
2022/11/29 08:24:56;;;;;;;19.27;9.77;;;6.30;99.90;;;;;;5003356;28;20065;-74
2022/11/29 08:27:22;;;;;;;17.10;9.77;;;6.30;99.90;;;;;;4985003;28;20038;-73
2022/11/29 08:29:48;;;;;;;19.92;10.18;;;6.30;99.90;;;;;;4995648;28;20057;-74
2022/11/29 08:32:14;;;;;;;23.10;9.52;;;6.30;99.90;;;;;;4990419;28;20045;-74
2022/11/29 08:34:39;;;;;;;27.48;10.20;;;6.30;99.90;;;;;;4978031;28;20054;-74
2022/11/29 08:37:05;;;;;;;22.85;9.73;;;6.30;99.90;;;;;;4990651;28;20046;-73
2022/11/29 08:39:31;;;;;;;24.10;9.27;;;6.40;99.90;;;;;;4997512;28;20133;-74
2022/11/29 08:41:57;;;;;;;21.08;9.00;;;6.30;99.90;;;;;;4993133;28;20497;-74
2022/11/29 08:44:22;;;;;;;25.05;9.52;;;6.40;99.90;;;;;;4990909;28;20116;-74
2022/11/29 08:49:32;;;;;;;24.88;8.95;;;6.40;99.90;;;;;;4998277;28;20053;-73
2022/11/29 08:54:42;;;;;;;21.40;8.18;;;6.60;99.90;;;;;;4994860;28;20533;-74
2022/11/29 08:57:08;;;;;;;26.00;9.75;;;6.60;99.90;;;;;;4995962;28;20046;-75
2022/11/29 08:59:34;;;;;;;21.33;9.50;;;6.60;99.90;;;;;;4998091;28;20789;-73
2022/11/29 09:02:00;;;;;;;22.95;8.95;;;6.60;99.90;;;;;;4982191;28;20057;-73
2022/11/29 09:04:25;;;;;;;24.48;9.23;;;6.70;99.90;;;;;;5005719;28;20419;-74
2022/11/29 09:06:51;;;;;;;27.65;9.40;;;6.70;99.90;;;;;;4993964;28;20049;-75
2022/11/29 09:09:17;;;;;;;29.40;8.88;;;6.80;99.90;;;;;;5005074;28;20050;-74
2022/11/29 09:11:43;;;;;;;25.35;8.73;;;6.90;99.90;;;;;;5005716;28;20064;-74
2022/11/29 09:14:14;;;;;;;28.67;9.02;;;6.90;99.90;;;;;;5004960;28;20105;-74
2022/11/29 09:16:40;;;;;;;23.02;9.30;;;7.10;99.90;;;;;;5003653;28;20048;-73
2022/11/29 09:19:06;;;;;;;29.25;9.13;;;7.00;99.90;;;;;;5005366;28;20045;-74
2022/11/29 09:21:35;;;;;;;18.20;7.93;;;7.10;99.90;;;;;;5004742;28;20396;-74
2022/11/29 09:24:05;;;;;;;26.40;8.60;;;7.10;99.90;;;;;;5006388;28;20048;-74
2022/11/29 09:26:33;;;;;;;26.30;9.43;;;7.10;99.90;;;;;;4989933;28;20124;-74
2022/11/29 09:29:03;;;;;;;31.20;8.88;;;7.20;99.90;;;;;;5005545;28;20041;-74
2022/11/29 09:31:30;;;;;;;33.33;9.70;;;7.20;99.90;;;;;;4989727;28;20392;-74
2022/11/29 09:33:59;;;;;;;31.02;10.07;;;7.30;99.90;;;;;;4989237;28;20796;-74
2022/11/29 09:36:25;;;;;;;32.17;8.70;;;7.30;99.90;;;;;;5001722;28;20077;-74
2022/11/29 09:38:51;;;;;;;27.65;8.90;;;7.30;99.90;;;;;;5005992;28;20798;-74
2022/11/29 09:41:20;;;;;;;28.48;9.50;;;7.40;99.90;;;;;;5005873;28;20074;-74
2022/11/29 09:44:16;;;;;;;22.60;8.68;;;7.40;99.90;;;;;;5005759;28;20050;-74
2022/11/29 09:46:59;;;;;;;28.52;9.35;;;7.40;99.90;;;;;;5005624;28;20511;-74
2022/11/29 09:49:31;;;;;;;30.55;8.60;;;7.50;99.90;;;;;;5004927;28;20095;-74
2022/11/29 09:52:13;;;;;;;30.65;9.27;;;7.50;99.90;;;;;;4990928;28;20045;-74
2022/11/29 09:54:54;;;;;;;;;;;7.60;99.90;;;;;;5006571;28;20132;-75
2022/11/29 09:57:22;;;;;;;18.90;7.35;;;7.60;99.90;;;;;;5004754;28;19929;-70
2022/11/29 10:00:00;;;;;;;24.27;8.40;;;7.60;99.90;;;;;;4995842;28;20042;-70
2022/11/29 10:02:36;;;;;;;29.58;8.95;;;7.70;99.90;;;;;;4987452;28;20648;-71
2022/11/29 10:05:10;;;;;;;35.20;8.60;;;7.70;99.90;;;;;;5007716;28;20049;-70
2022/11/29 10:07:42;;;;;;;31.13;9.52;;;7.70;99.90;;;;;;5008277;28;20148;-70
2022/11/29 10:10:13;;;;;;;;;;;7.80;99.90;;;;;;5008445;28;20105;-70
2022/11/29 10:12:45;;;;;;;28.83;8.67;;;7.80;99.90;;;;;;5009719;28;20416;-70
2022/11/29 10:15:17;;;;;;;37.22;9.25;;;7.90;99.90;;;;;;5007268;28;20065;-70
2022/11/29 10:18:03;;;;;;;24.15;8.20;;;7.90;99.90;;;;;;5006808;28;20053;-70
2022/11/29 10:20:33;;;;;;;28.63;8.75;;;7.90;99.90;;;;;;5008714;28;20038;-70
2022/11/29 10:22:59;;;;;;;27.90;8.05;;;7.90;99.90;;;;;;5009523;28;20089;-69
2022/11/29 10:25:36;;;;;;;29.48;9.27;;;8.00;99.90;;;;;;5009073;28;20045;-70
2022/11/29 10:28:05;;;;;;;31.42;8.73;;;8.00;99.90;;;;;;5007851;28;20046;-70
2022/11/29 10:30:34;;;;;;;28.80;9.35;;;8.00;99.90;;;;;;5008484;28;20073;-70
2022/11/29 10:33:01;;;;;;;27.05;7.90;;;8.00;99.90;;;;;;5005929;28;20050;-70
2022/11/29 10:35:30;;;;;;;22.80;7.90;;;8.10;99.90;;;;;;5007911;28;20141;-70
2022/11/29 10:37:59;;;;;;;30.33;9.02;;;8.10;99.90;;;;;;4991481;28;20450;-70
2022/11/29 10:40:32;;;;;;;29.40;9.07;;;8.10;99.90;;;;;;5008627;28;20045;-70
2022/11/29 10:42:58;;;;;;;37.45;8.77;;;8.20;99.90;;;;;;5008325;28;20534;-70
2022/11/29 10:45:39;;;;;;;25.50;9.07;;;8.20;99.90;;;;;;5008227;28;20082;-69
2022/11/29 10:48:12;;;;;;;27.38;9.02;;;8.30;99.90;;;;;;4987505;28;20038;-70
2022/11/29 10:50:42;;;;;;;26.50;8.43;;;8.30;99.90;;;;;;5005740;28;20535;-70
2022/11/29 10:53:31;;;;;;;27.50;9.23;;;8.40;99.90;;;;;;5005972;28;20451;-70
2022/11/29 10:56:08;;;;;;;24.42;8.57;;;8.40;99.90;;;;;;4988214;28;20140;-70
2022/11/29 10:58:34;;;;;;;29.92;9.77;;;8.50;99.90;;;;;;5009454;28;20038;-70
2022/11/29 11:01:01;;;;;;;24.70;9.35;;;8.70;99.90;;;;;;5008148;28;20506;-70
2022/11/29 11:03:34;;;;;;;34.47;10.27;;;8.60;99.90;;;;;;5003063;28;20038;-70
2022/11/29 11:06:05;;;;;;;29.33;9.00;;;8.60;99.90;;;;;;4999395;28;20042;-70
2022/11/29 11:08:32;;;;;;;29.85;10.45;;;8.60;99.90;;;;;;5003326;28;20529;-70
2022/11/29 11:11:00;;;;;;;23.60;10.15;;;8.70;99.90;;;;;;4985219;28;20097;-70
2022/11/29 11:13:29;;;;;;;23.65;9.70;;;8.70;99.90;;;;;;5001704;28;20041;-70
2022/11/29 11:16:07;;;;;;;23.98;10.15;;;8.80;99.90;;;;;;5000896;28;20046;-70
2022/11/29 11:18:33;;;;;;;24.08;9.57;;;8.70;99.90;;;;;;4993753;28;20128;-70
2022/11/29 11:21:01;;;;;;;28.67;10.05;;;8.80;99.90;;;;;;5004594;28;20050;-70
2022/11/29 11:23:35;;;;;;;28.65;10.90;;;8.80;99.90;;;;;;4984617;28;20056;-71
2022/11/29 11:26:07;;;;;;;27.08;11.07;;;8.80;99.90;;;;;;5002647;28;20050;-70
2022/11/29 11:28:40;;;;;;;22.67;10.98;;;8.90;99.90;;;;;;5003419;28;20133;-70
2022/11/29 11:31:08;;;;;;;28.38;12.90;;;8.90;99.90;;;;;;5002359;28;20578;-70
2022/11/29 11:33:36;;;;;;;25.45;14.15;;;9.40;99.90;;;;;;5000676;28;20172;-70
2022/11/29 11:36:21;;;;;;;28.75;13.55;;;8.90;99.90;;;;;;4988645;28;20514;-70
2022/11/29 11:38:52;;;;;;;26.25;13.57;;;8.90;99.90;;;;;;4987102;28;20073;-70
2022/11/29 11:44:49;;;;;;;24.30;12.73;;;8.90;99.90;;;;;;4934777;28;20468;-70
2022/11/29 11:47:23;;;;;;;28.98;13.60;;;9.00;99.90;;;;;;4982245;28;20056;-70
2022/11/29 11:49:54;;;;;;;24.25;12.65;;;8.90;99.90;;;;;;5001018;28;21319;-70
2022/11/29 11:52:27;;;;;;;23.33;12.27;;;9.00;99.90;;;;;;5003311;28;20041;-71
2022/11/29 11:54:59;;;;;;;25.25;11.88;;;9.00;99.90;;;;;;5004671;28;20052;-71
2022/11/29 11:57:29;;;;;;;25.25;13.57;;;9.00;99.90;;;;;;5000611;28;20046;-70
2022/11/29 11:59:59;;;;;;;21.35;11.57;;;9.00;99.90;;;;;;5004482;28;20048;-70
2022/11/29 12:02:38;;;;;;;23.10;11.50;;;9.00;99.90;;;;;;5004341;28;20092;-70
2022/11/29 12:05:12;;;;;;;18.35;10.88;;;9.00;99.90;;;;;;4987371;28;20042;-70
2022/11/29 12:08:01;;;;;;;18.63;12.65;;;8.90;99.90;;;;;;5002775;28;20053;-70
2022/11/29 12:10:30;;;;;;;14.95;9.07;;;9.00;99.90;;;;;;4997712;28;20053;-71
2022/11/29 12:12:59;;;;;;;18.92;9.18;;;9.00;99.90;;;;;;5004076;28;20041;-72
2022/11/29 12:15:38;;;;;;;20.02;9.27;;;8.90;99.90;;;;;;5004591;28;20045;-70
2022/11/29 12:18:15;;;;;;;15.23;9.23;;;8.90;99.90;;;;;;5001269;28;20124;-71
2022/11/29 12:21:07;;;;;;;16.17;8.50;;;8.90;99.90;;;;;;5001092;28;20049;-71
2022/11/29 12:23:52;;;;;;;14.73;8.55;;;9.00;99.90;;;;;;5002175;28;20038;-71
2022/11/29 12:26:25;;;;;;;14.88;8.27;;;9.00;99.90;;;;;;4985925;28;20064;-72
2022/11/29 12:28:51;;;;;;;16.90;8.80;;;9.00;99.90;;;;;;4993052;28;20077;-71
2022/11/29 12:31:35;;;;;;;16.98;7.72;;;9.00;99.90;;;;;;4995719;28;20547;-71
2022/11/29 12:34:01;;;;;;;15.80;7.13;;;9.00;99.90;;;;;;4974724;28;20053;-71
2022/11/29 12:36:51;;;;;;;10.93;7.30;;;9.00;99.90;;;;;;4974905;28;20057;-72
2022/11/29 12:39:35;;;;;;;12.27;6.78;;;9.00;99.90;;;;;;4976945;28;20046;-70
2022/11/29 12:42:27;;;;;;;11.50;7.15;;;9.00;99.90;;;;;;4992773;28;21130;-72
2022/11/29 12:45:19;;;;;;;10.05;6.13;;;9.00;99.90;;;;;;4976915;28;20627;-72
2022/11/29 12:48:10;;;;;;;12.15;5.63;;;9.00;99.90;;;;;;4957044;28;20089;-71
2022/11/29 12:50:51;;;;;;;9.43;4.10;;;9.00;99.90;;;;;;4975447;28;20556;-72
2022/11/29 12:53:41;;;;;;;9.48;4.00;;;9.00;99.90;;;;;;4993576;28;20068;-72
2022/11/29 12:56:26;;;;;;;8.48;4.22;;;9.00;99.90;;;;;;4992526;28;20050;-71
2022/11/29 12:59:19;;;;;;;10.75;4.80;;;9.00;99.90;;;;;;4982226;28;20049;-71
2022/11/29 13:01:57;;;;;;;6.65;4.07;;;8.90;99.90;;;;;;4993086;28;20045;-70
2022/11/29 13:04:38;;;;;;;9.30;4.50;;;9.10;99.90;;;;;;4974318;28;20054;-70
2022/11/29 13:07:06;;;;;;;9.50;4.57;;;8.90;99.90;;;;;;4993103;28;20120;-70
2022/11/29 13:10:01;;;;;;;8.55;5.20;;;8.90;99.90;;;;;;4994504;28;20132;-71
2022/11/29 13:12:42;;;;;;;8.73;4.85;;;8.90;99.90;;;;;;4995120;28;20430;-71
2022/11/29 13:15:23;;;;;;;7.97;4.95;;;8.90;99.90;;;;;;4993068;28;20096;-71
2022/11/29 13:18:04;;;;;;;8.25;4.90;;;8.80;99.90;;;;;;4988754;28;20042;-71
2022/11/29 13:20:43;;;;;;;9.77;4.80;;;8.80;99.90;;;;;;4991968;28;20054;-71
2022/11/29 13:23:23;;;;;;;9.45;5.75;;;8.80;99.90;;;;;;4989475;28;20450;-71
2022/11/29 13:25:53;;;;;;;10.02;6.07;;;8.80;99.90;;;;;;4991840;28;20042;-71
2022/11/29 13:28:31;;;;;;;10.68;6.40;;;8.80;99.90;;;;;;4990429;28;20046;-71
2022/11/29 13:31:14;;;;;;;13.90;7.65;;;8.70;99.90;;;;;;4990425;28;20048;-71
2022/11/29 13:34:08;;;;;;;10.80;7.15;;;8.70;99.90;;;;;;4988757;28;20486;-71
2022/11/29 13:36:48;;;;;;;25.67;16.75;;;8.70;99.90;;;;;;4969740;28;20491;-72
2022/11/29 13:39:53;;;;;;;21.88;13.55;;;8.70;99.90;;;;;;4987066;28;20576;-71